Time,TemperatureF,DewpointF,PressureIn,WindDirection,WindDirectionDegrees,WindSpeedMPH,WindSpeedGustMPH,Humidity,HourlyPrecipIn,Conditions,Clouds,dailyrainin,SolarRadiationWatts/m^2,SoftwareType,DateUTC
2013-09-01 00:12:00,84.0,72.0,-100.00,SSE,165,3.0,7.0,67,0.00,,,0.00,0.000000,,2013-09-01 07:12:00,
2013-09-01 00:22:00,84.0,72.0,-100.00,SSE,165,3.0,7.0,67,0.00,,,0.00,0.000000,,2013-09-01 07:22:00,
2013-09-01 00:32:00,84.0,72.0,-100.00,SSE,165,3.0,7.0,67,0.00,,,0.00,0.000000,,2013-09-01 07:32:00,
2013-09-01 00:42:00,84.0,72.0,-100.00,SSE,165,3.0,7.0,67,0.00,,,0.00,0.000000,,2013-09-01 07:42:00,
2013-09-01 01:11:00,83.0,74.0,-100.00,SSE,166,4.0,6.0,74,0.00,,,0.00,0.000000,,2013-09-01 08:11:00,
2013-09-01 01:22:00,83.0,74.0,-100.00,SSE,166,4.0,6.0,74,0.00,,,0.00,0.000000,,2013-09-01 08:22:00,
2013-09-01 01:32:00,83.0,74.0,-100.00,SSE,166,4.0,6.0,74,0.00,,,0.00,0.000000,,2013-09-01 08:32:00,
2013-09-01 01:43:00,83.0,74.0,-100.00,SSE,166,4.0,6.0,74,0.00,,,0.00,0.000000,,2013-09-01 08:43:00,
2013-09-01 02:11:00,83.0,73.0,-100.00,SSW,203,3.0,6.0,71,0.00,,,0.00,0.000000,,2013-09-01 09:11:00,
2013-09-01 02:21:00,83.0,73.0,-100.00,SSW,203,3.0,6.0,71,0.00,,,0.00,0.000000,,2013-09-01 09:21:00,
2013-09-01 02:33:00,83.0,73.0,-100.00,SSW,203,3.0,6.0,71,0.00,,,0.00,0.000000,,2013-09-01 09:33:00,
2013-09-01 02:43:00,83.0,73.0,-100.00,SSW,203,3.0,6.0,71,0.00,,,0.00,0.000000,,2013-09-01 09:43:00,
2013-09-01 03:12:00,82.0,72.0,-100.00,SSE,160,4.0,6.0,72,0.00,,,0.00,0.000000,,2013-09-01 10:12:00,
2013-09-01 03:23:00,82.0,72.0,-100.00,SSE,160,4.0,6.0,72,0.00,,,0.00,0.000000,,2013-09-01 10:23:00,
2013-09-01 03:33:00,82.0,72.0,-100.00,SSE,160,4.0,6.0,72,0.00,,,0.00,0.000000,,2013-09-01 10:33:00,
2013-09-01 03:42:00,82.0,72.0,-100.00,SSE,160,4.0,6.0,72,0.00,,,0.00,0.000000,,2013-09-01 10:42:00,
2013-09-01 04:12:00,84.0,72.0,-100.00,South,179,2.0,7.0,67,0.00,,,0.00,0.000000,,2013-09-01 11:12:00,
2013-09-01 04:22:00,84.0,72.0,-100.00,South,179,2.0,7.0,67,0.00,,,0.00,0.000000,,2013-09-01 11:22:00,
2013-09-01 04:32:00,84.0,72.0,-100.00,South,179,2.0,7.0,67,0.00,,,0.00,0.000000,,2013-09-01 11:32:00,
2013-09-01 04:42:00,84.0,72.0,-100.00,South,179,2.0,7.0,67,0.00,,,0.00,0.000000,,2013-09-01 11:42:00,
2013-09-01 05:12:00,83.0,71.0,-100.00,West,280,0.0,5.0,67,0.00,,,0.00,0.000000,,2013-09-01 12:12:00,
2013-09-01 05:22:00,83.0,71.0,-100.00,West,280,0.0,5.0,67,0.00,,,0.00,0.000000,,2013-09-01 12:22:00,
2013-09-01 05:32:00,83.0,71.0,-100.00,West,280,0.0,5.0,67,0.00,,,0.00,0.000000,,2013-09-01 12:32:00,
2013-09-01 05:42:00,83.0,71.0,-100.00,West,280,0.0,5.0,67,0.00,,,0.00,0.000000,,2013-09-01 12:42:00,
2013-09-01 06:11:00,81.0,75.0,-100.00,NNW,330,4.0,7.0,81,0.00,,,0.00,0.000000,,2013-09-01 13:11:00,
2013-09-01 06:21:00,81.0,75.0,-100.00,NNW,330,4.0,7.0,81,0.00,,,0.00,0.000000,,2013-09-01 13:21:00,
2013-09-01 06:32:00,81.0,75.0,-100.00,NNW,330,4.0,7.0,81,0.00,,,0.00,0.000000,,2013-09-01 13:32:00,
2013-09-01 06:42:00,81.0,75.0,-100.00,NNW,330,4.0,7.0,81,0.00,,,0.00,0.000000,,2013-09-01 13:42:00,
2013-09-01 07:11:00,81.0,73.0,-100.00,NW,317,5.0,7.0,77,0.00,,,0.00,19.000000,,2013-09-01 14:11:00,
2013-09-01 07:21:00,81.0,73.0,-100.00,NW,317,5.0,7.0,77,0.00,,,0.00,19.000000,,2013-09-01 14:21:00,
2013-09-01 07:32:00,81.0,73.0,-100.00,NW,317,5.0,7.0,77,0.00,,,0.00,19.000000,,2013-09-01 14:32:00,
2013-09-01 07:42:00,81.0,73.0,-100.00,NW,317,5.0,7.0,77,0.00,,,0.00,19.000000,,2013-09-01 14:42:00,
2013-09-01 08:11:00,85.0,73.0,-100.00,NNW,342,6.0,11.0,68,0.00,,,0.00,156.000000,,2013-09-01 15:11:00,
2013-09-01 08:23:00,85.0,73.0,-100.00,NNW,342,6.0,11.0,68,0.00,,,0.00,156.000000,,2013-09-01 15:23:00,
2013-09-01 08:34:00,85.0,73.0,-100.00,NNW,342,6.0,11.0,68,0.00,,,0.00,156.000000,,2013-09-01 15:34:00,
2013-09-01 08:44:00,85.0,73.0,-100.00,NNW,342,6.0,11.0,68,0.00,,,0.00,156.000000,,2013-09-01 15:44:00,
2013-09-01 09:14:00,89.0,75.0,-100.00,North,4,5.0,9.0,64,0.00,,,0.00,407.000000,,2013-09-01 16:14:00,
2013-09-01 09:24:00,89.0,75.0,-100.00,North,4,5.0,9.0,64,0.00,,,0.00,407.000000,,2013-09-01 16:24:00,
2013-09-01 09:34:00,89.0,75.0,-100.00,North,4,5.0,9.0,64,0.00,,,0.00,407.000000,,2013-09-01 16:34:00,
2013-09-01 09:43:00,89.0,75.0,-100.00,North,4,5.0,9.0,64,0.00,,,0.00,407.000000,,2013-09-01 16:43:00,
2013-09-01 10:12:00,93.0,72.0,-100.00,NNW,346,7.0,11.0,51,0.00,,,0.00,609.000000,,2013-09-01 17:12:00,
2013-09-01 10:23:00,93.0,72.0,-100.00,NNW,346,7.0,11.0,51,0.00,,,0.00,609.000000,,2013-09-01 17:23:00,
2013-09-01 10:34:00,93.0,72.0,-100.00,NNW,346,7.0,11.0,51,0.00,,,0.00,609.000000,,2013-09-01 17:34:00,
2013-09-01 10:42:00,93.0,72.0,-100.00,NNW,346,7.0,11.0,51,0.00,,,0.00,609.000000,,2013-09-01 17:42:00,
2013-09-01 11:12:00,96.0,70.0,-100.00,NNW,343,7.0,10.0,43,0.00,,,0.00,778.000000,,2013-09-01 18:12:00,
2013-09-01 11:22:00,96.0,70.0,-100.00,NNW,343,7.0,10.0,43,0.00,,,0.00,778.000000,,2013-09-01 18:22:00,
2013-09-01 11:32:00,96.0,70.0,-100.00,NNW,343,7.0,10.0,43,0.00,,,0.00,778.000000,,2013-09-01 18:32:00,
2013-09-01 11:42:00,96.0,70.0,-100.00,NNW,343,7.0,10.0,43,0.00,,,0.00,778.000000,,2013-09-01 18:42:00,
2013-09-01 12:12:00,99.0,71.0,-100.00,NW,308,5.0,11.0,41,0.00,,,0.00,900.000000,,2013-09-01 19:12:00,
2013-09-01 12:22:00,99.0,71.0,-100.00,NW,308,5.0,11.0,41,0.00,,,0.00,900.000000,,2013-09-01 19:22:00,
2013-09-01 12:32:00,99.0,71.0,-100.00,NW,308,5.0,11.0,41,0.00,,,0.00,900.000000,,2013-09-01 19:32:00,
2013-09-01 12:42:00,99.0,71.0,-100.00,NW,308,5.0,11.0,41,0.00,,,0.00,900.000000,,2013-09-01 19:42:00,
2013-09-01 13:12:00,101.0,70.0,-100.00,South,171,4.0,9.0,37,0.00,,,0.00,959.000000,,2013-09-01 20:12:00,
2013-09-01 13:21:00,101.0,70.0,-100.00,South,171,4.0,9.0,37,0.00,,,0.00,959.000000,,2013-09-01 20:21:00,
2013-09-01 13:32:00,101.0,70.0,-100.00,South,171,4.0,9.0,37,0.00,,,0.00,959.000000,,2013-09-01 20:32:00,
2013-09-01 13:42:00,101.0,70.0,-100.00,South,171,4.0,9.0,37,0.00,,,0.00,959.000000,,2013-09-01 20:42:00,
2013-09-01 14:11:00,105.0,66.0,-100.00,SSE,153,4.0,10.0,29,0.00,,,0.00,952.000000,,2013-09-01 21:11:00,
2013-09-01 14:21:00,105.0,66.0,-100.00,SSE,153,4.0,10.0,29,0.00,,,0.00,952.000000,,2013-09-01 21:21:00,
2013-09-01 14:34:00,105.0,66.0,-100.00,SSE,153,4.0,10.0,29,0.00,,,0.00,952.000000,,2013-09-01 21:34:00,
2013-09-01 14:43:00,105.0,66.0,-100.00,SSE,153,4.0,10.0,29,0.00,,,0.00,952.000000,,2013-09-01 21:43:00,
2013-09-01 15:14:00,107.0,64.0,-100.00,West,276,5.0,10.0,25,0.00,,,-99.99,860.000000,,2013-09-01 22:14:00,
2013-09-01 15:24:00,107.0,64.0,-100.00,West,276,5.0,10.0,25,0.00,,,-99.99,860.000000,,2013-09-01 22:24:00,
2013-09-01 15:34:00,107.0,64.0,-100.00,West,276,5.0,10.0,25,0.00,,,-99.99,860.000000,,2013-09-01 22:34:00,
2013-09-01 15:42:00,107.0,64.0,-100.00,West,276,5.0,10.0,25,0.00,,,-99.99,860.000000,,2013-09-01 22:42:00,
2013-09-01 16:12:00,108.0,62.0,-100.00,WNW,302,5.0,11.0,23,0.00,,,0.00,713.000000,,2013-09-01 23:12:00,
2013-09-01 16:23:00,108.0,62.0,-100.00,WNW,302,5.0,11.0,23,0.00,,,0.00,713.000000,,2013-09-01 23:23:00,
2013-09-01 16:34:00,108.0,62.0,-100.00,WNW,302,5.0,11.0,23,0.00,,,0.00,713.000000,,2013-09-01 23:34:00,
2013-09-01 16:42:00,108.0,62.0,-100.00,WNW,302,5.0,11.0,23,0.00,,,0.00,713.000000,,2013-09-01 23:42:00,
2013-09-01 17:11:00,107.0,60.0,-100.00,WSW,242,6.0,15.0,22,0.00,,,0.00,523.000000,,2013-09-02 00:11:00,
2013-09-01 17:22:00,107.0,60.0,-100.00,WSW,242,6.0,15.0,22,0.00,,,0.00,523.000000,,2013-09-02 00:22:00,
2013-09-01 17:33:00,107.0,60.0,-100.00,WSW,242,6.0,15.0,22,0.00,,,0.00,523.000000,,2013-09-02 00:33:00,
2013-09-01 17:42:00,107.0,60.0,-100.00,WSW,242,6.0,15.0,22,0.00,,,0.00,523.000000,,2013-09-02 00:42:00,
2013-09-01 18:12:00,106.0,58.0,-100.00,SW,227,5.0,10.0,21,0.00,,,0.00,310.000000,,2013-09-02 01:12:00,
2013-09-01 18:21:00,106.0,58.0,-100.00,SW,227,5.0,10.0,21,0.00,,,0.00,310.000000,,2013-09-02 01:21:00,
2013-09-01 18:32:00,106.0,58.0,-100.00,SW,227,5.0,10.0,21,0.00,,,0.00,310.000000,,2013-09-02 01:32:00,
2013-09-01 18:42:00,106.0,58.0,-100.00,SW,227,5.0,10.0,21,0.00,,,0.00,310.000000,,2013-09-02 01:42:00,
2013-09-01 19:12:00,101.0,60.0,-100.00,SSW,213,5.0,10.0,26,0.00,,,0.00,104.000000,,2013-09-02 02:12:00,
2013-09-01 19:22:00,101.0,60.0,-100.00,SSW,213,5.0,10.0,26,0.00,,,0.00,104.000000,,2013-09-02 02:22:00,
2013-09-01 19:33:00,101.0,60.0,-100.00,SSW,213,5.0,10.0,26,0.00,,,0.00,104.000000,,2013-09-02 02:33:00,
2013-09-01 19:42:00,101.0,60.0,-100.00,SSW,213,5.0,10.0,26,0.00,,,0.00,104.000000,,2013-09-02 02:42:00,
2013-09-01 20:11:00,95.0,60.0,-100.00,SSW,195,4.0,9.0,31,0.00,,,0.00,3.000000,,2013-09-02 03:11:00,
2013-09-01 20:22:00,95.0,60.0,-100.00,SSW,195,4.0,9.0,31,0.00,,,0.00,3.000000,,2013-09-02 03:22:00,
2013-09-01 20:34:00,95.0,60.0,-100.00,SSW,195,4.0,9.0,31,0.00,,,0.00,3.000000,,2013-09-02 03:34:00,
2013-09-01 20:44:00,95.0,60.0,-100.00,SSW,195,4.0,9.0,31,0.00,,,0.00,3.000000,,2013-09-02 03:44:00,
2013-09-01 21:14:00,92.0,60.0,-100.00,SSW,193,4.0,5.0,35,0.00,,,0.00,0.000000,,2013-09-02 04:14:00,
2013-09-01 21:24:00,92.0,60.0,-100.00,SSW,193,4.0,5.0,35,0.00,,,0.00,0.000000,,2013-09-02 04:24:00,
2013-09-01 21:35:00,92.0,60.0,-100.00,SSW,193,4.0,5.0,35,0.00,,,0.00,0.000000,,2013-09-02 04:35:00,
2013-09-01 21:44:00,92.0,60.0,-100.00,SSW,193,4.0,5.0,35,0.00,,,0.00,0.000000,,2013-09-02 04:44:00,
2013-09-01 22:13:00,91.0,62.0,-100.00,SSW,198,5.0,6.0,38,0.00,,,0.00,0.000000,,2013-09-02 05:13:00,
2013-09-01 22:23:00,91.0,62.0,-100.00,SSW,198,5.0,6.0,38,0.00,,,0.00,0.000000,,2013-09-02 05:23:00,
2013-09-01 22:34:00,91.0,62.0,-100.00,SSW,198,5.0,6.0,38,0.00,,,0.00,0.000000,,2013-09-02 05:34:00,
2013-09-01 22:43:00,91.0,62.0,-100.00,SSW,198,5.0,6.0,38,0.00,,,0.00,0.000000,,2013-09-02 05:43:00,
2013-09-01 23:12:00,88.0,61.0,-100.00,SSE,149,4.0,6.0,40,0.00,,,0.00,0.000000,,2013-09-02 06:12:00,
2013-09-01 23:22:00,88.0,61.0,-100.00,SSE,149,4.0,6.0,40,0.00,,,0.00,0.000000,,2013-09-02 06:22:00,
2013-09-01 23:32:00,88.0,61.0,-100.00,SSE,149,4.0,6.0,40,0.00,,,0.00,0.000000,,2013-09-02 06:32:00,
2013-09-01 23:43:00,88.0,61.0,-100.00,SSE,149,4.0,6.0,40,0.00,,,0.00,0.000000,,2013-09-02 06:43:00,